sensor_id;sensor_type;location;lat;lon;timestamp;P1;durP1;ratioP1;P2;durP2;ratioP2
17024;SDS011;8629;42.496;25.620;2023-06-14T00:00:45;4.93;;;3.70;;
17024;SDS011;8629;42.496;25.620;2023-06-14T00:03:15;4.60;;;4.13;;
17024;SDS011;8629;42.496;25.620;2023-06-14T00:05:43;4.60;;;3.77;;
17024;SDS011;8629;42.496;25.620;2023-06-14T00:08:11;4.27;;;3.83;;
17024;SDS011;8629;42.496;25.620;2023-06-14T00:10:38;4.40;;;4.00;;
17024;SDS011;8629;42.496;25.620;2023-06-14T00:13:06;3.97;;;3.67;;
17024;SDS011;8629;42.496;25.620;2023-06-14T00:15:33;4.40;;;4.00;;
17024;SDS011;8629;42.496;25.620;2023-06-14T00:18:00;6.63;;;3.50;;
17024;SDS011;8629;42.496;25.620;2023-06-14T00:20:28;6.03;;;3.73;;
17024;SDS011;8629;42.496;25.620;2023-06-14T00:22:57;6.47;;;3.67;;
17024;SDS011;8629;42.496;25.620;2023-06-14T00:25:24;6.23;;;4.13;;
17024;SDS011;8629;42.496;25.620;2023-06-14T00:27:52;7.27;;;4.37;;
17024;SDS011;8629;42.496;25.620;2023-06-14T00:30:18;5.33;;;4.07;;
17024;SDS011;8629;42.496;25.620;2023-06-14T00:32:45;4.57;;;4.27;;
17024;SDS011;8629;42.496;25.620;2023-06-14T00:35:12;4.60;;;4.20;;
17024;SDS011;8629;42.496;25.620;2023-06-14T00:37:40;9.20;;;3.67;;
17024;SDS011;8629;42.496;25.620;2023-06-14T00:40:07;3.90;;;3.60;;
17024;SDS011;8629;42.496;25.620;2023-06-14T00:42:34;4.33;;;3.80;;
17024;SDS011;8629;42.496;25.620;2023-06-14T00:45:01;4.10;;;3.70;;
17024;SDS011;8629;42.496;25.620;2023-06-14T00:47:28;4.10;;;3.80;;
17024;SDS011;8629;42.496;25.620;2023-06-14T00:49:55;4.47;;;3.73;;
17024;SDS011;8629;42.496;25.620;2023-06-14T00:52:23;5.80;;;4.07;;
17024;SDS011;8629;42.496;25.620;2023-06-14T00:54:51;4.23;;;3.83;;
17024;SDS011;8629;42.496;25.620;2023-06-14T00:57:18;4.33;;;3.93;;
17024;SDS011;8629;42.496;25.620;2023-06-14T00:59:46;4.83;;;3.53;;
17024;SDS011;8629;42.496;25.620;2023-06-14T01:02:14;9.63;;;4.43;;
17024;SDS011;8629;42.496;25.620;2023-06-14T01:04:43;5.20;;;3.67;;
17024;SDS011;8629;42.496;25.620;2023-06-14T01:07:15;4.33;;;3.93;;
17024;SDS011;8629;42.496;25.620;2023-06-14T01:09:48;8.23;;;4.40;;
17024;SDS011;8629;42.496;25.620;2023-06-14T01:12:21;5.63;;;3.40;;
17024;SDS011;8629;42.496;25.620;2023-06-14T01:14:53;4.40;;;3.80;;
17024;SDS011;8629;42.496;25.620;2023-06-14T01:17:20;3.90;;;3.60;;
17024;SDS011;8629;42.496;25.620;2023-06-14T01:19:48;4.27;;;3.50;;
17024;SDS011;8629;42.496;25.620;2023-06-14T01:22:15;3.23;;;3.00;;
17024;SDS011;8629;42.496;25.620;2023-06-14T01:24:43;3.70;;;3.40;;
17024;SDS011;8629;42.496;25.620;2023-06-14T01:27:10;4.00;;;3.60;;
17024;SDS011;8629;42.496;25.620;2023-06-14T01:29:37;3.80;;;3.50;;
17024;SDS011;8629;42.496;25.620;2023-06-14T01:32:04;4.70;;;4.17;;
17024;SDS011;8629;42.496;25.620;2023-06-14T01:34:32;3.97;;;3.67;;
17024;SDS011;8629;42.496;25.620;2023-06-14T01:36:59;4.27;;;3.73;;
17024;SDS011;8629;42.496;25.620;2023-06-14T01:39:26;5.20;;;4.00;;
17024;SDS011;8629;42.496;25.620;2023-06-14T01:41:55;4.30;;;3.73;;
17024;SDS011;8629;42.496;25.620;2023-06-14T01:44:23;5.00;;;3.73;;
17024;SDS011;8629;42.496;25.620;2023-06-14T01:46:50;5.93;;;4.30;;
17024;SDS011;8629;42.496;25.620;2023-06-14T01:49:17;4.40;;;4.00;;
17024;SDS011;8629;42.496;25.620;2023-06-14T01:51:44;5.70;;;4.37;;
17024;SDS011;8629;42.496;25.620;2023-06-14T01:54:10;4.00;;;3.70;;
17024;SDS011;8629;42.496;25.620;2023-06-14T01:56:37;4.13;;;3.70;;
17024;SDS011;8629;42.496;25.620;2023-06-14T01:59:05;3.90;;;3.60;;
17024;SDS011;8629;42.496;25.620;2023-06-14T02:01:32;10.33;;;5.87;;
17024;SDS011;8629;42.496;25.620;2023-06-14T02:04:00;3.83;;;3.53;;
17024;SDS011;8629;42.496;25.620;2023-06-14T02:06:26;4.03;;;3.67;;
17024;SDS011;8629;42.496;25.620;2023-06-14T02:08:53;4.00;;;3.37;;
17024;SDS011;8629;42.496;25.620;2023-06-14T02:11:20;4.00;;;3.70;;
17024;SDS011;8629;42.496;25.620;2023-06-14T02:13:47;3.83;;;3.53;;
17024;SDS011;8629;42.496;25.620;2023-06-14T02:16:15;3.83;;;3.53;;
17024;SDS011;8629;42.496;25.620;2023-06-14T02:18:42;3.83;;;3.23;;
17024;SDS011;8629;42.496;25.620;2023-06-14T02:21:09;4.80;;;4.20;;
17024;SDS011;8629;42.496;25.620;2023-06-14T02:23:35;3.97;;;3.23;;
17024;SDS011;8629;42.496;25.620;2023-06-14T02:26:02;3.87;;;3.37;;
17024;SDS011;8629;42.496;25.620;2023-06-14T02:28:29;3.20;;;3.00;;
17024;SDS011;8629;42.496;25.620;2023-06-14T02:30:55;4.30;;;3.90;;
17024;SDS011;8629;42.496;25.620;2023-06-14T02:33:24;3.70;;;3.40;;
17024;SDS011;8629;42.496;25.620;2023-06-14T02:35:50;4.73;;;3.33;;
17024;SDS011;8629;42.496;25.620;2023-06-14T02:38:17;4.10;;;3.30;;
17024;SDS011;8629;42.496;25.620;2023-06-14T02:40:44;3.93;;;3.33;;
17024;SDS011;8629;42.496;25.620;2023-06-14T02:43:11;6.07;;;4.00;;
17024;SDS011;8629;42.496;25.620;2023-06-14T02:45:38;4.87;;;3.37;;
17024;SDS011;8629;42.496;25.620;2023-06-14T02:48:05;3.97;;;3.67;;
17024;SDS011;8629;42.496;25.620;2023-06-14T02:50:33;4.27;;;3.60;;
17024;SDS011;8629;42.496;25.620;2023-06-14T02:53:00;4.77;;;3.23;;
17024;SDS011;8629;42.496;25.620;2023-06-14T02:55:27;8.80;;;3.83;;
17024;SDS011;8629;42.496;25.620;2023-06-14T02:57:55;5.07;;;3.57;;
17024;SDS011;8629;42.496;25.620;2023-06-14T03:00:22;8.47;;;3.63;;
17024;SDS011;8629;42.496;25.620;2023-06-14T03:02:49;3.73;;;3.50;;
17024;SDS011;8629;42.496;25.620;2023-06-14T03:05:16;4.50;;;4.10;;
17024;SDS011;8629;42.496;25.620;2023-06-14T03:07:47;4.60;;;3.87;;
17024;SDS011;8629;42.496;25.620;2023-06-14T03:10:15;3.60;;;3.30;;
17024;SDS011;8629;42.496;25.620;2023-06-14T03:12:42;8.00;;;3.97;;
17024;SDS011;8629;42.496;25.620;2023-06-14T03:15:09;4.50;;;3.67;;
17024;SDS011;8629;42.496;25.620;2023-06-14T03:17:38;5.77;;;4.17;;
17024;SDS011;8629;42.496;25.620;2023-06-14T03:20:05;4.20;;;3.90;;
17024;SDS011;8629;42.496;25.620;2023-06-14T03:22:33;5.23;;;4.53;;
17024;SDS011;8629;42.496;25.620;2023-06-14T03:25:01;4.83;;;4.50;;
17024;SDS011;8629;42.496;25.620;2023-06-14T03:27:29;5.13;;;4.63;;
17024;SDS011;8629;42.496;25.620;2023-06-14T03:29:56;4.87;;;4.20;;
17024;SDS011;8629;42.496;25.620;2023-06-14T03:32:23;5.43;;;4.93;;
17024;SDS011;8629;42.496;25.620;2023-06-14T03:34:49;5.13;;;4.73;;
17024;SDS011;8629;42.496;25.620;2023-06-14T03:37:17;8.70;;;5.53;;
17024;SDS011;8629;42.496;25.620;2023-06-14T03:39:44;6.47;;;5.87;;
17024;SDS011;8629;42.496;25.620;2023-06-14T03:42:14;8.23;;;7.43;;
17024;SDS011;8629;42.496;25.620;2023-06-14T03:44:40;8.63;;;7.27;;
17024;SDS011;8629;42.496;25.620;2023-06-14T03:47:07;6.70;;;6.10;;
17024;SDS011;8629;42.496;25.620;2023-06-14T03:49:34;5.73;;;5.23;;
17024;SDS011;8629;42.496;25.620;2023-06-14T03:52:02;7.00;;;4.90;;
17024;SDS011;8629;42.496;25.620;2023-06-14T03:54:29;6.57;;;4.90;;
17024;SDS011;8629;42.496;25.620;2023-06-14T03:56:58;6.90;;;6.20;;
17024;SDS011;8629;42.496;25.620;2023-06-14T03:59:26;6.00;;;5.43;;
17024;SDS011;8629;42.496;25.620;2023-06-14T04:01:53;5.97;;;4.97;;
17024;SDS011;8629;42.496;25.620;2023-06-14T04:04:20;7.13;;;5.70;;
17024;SDS011;8629;42.496;25.620;2023-06-14T04:06:53;9.90;;;5.17;;
17024;SDS011;8629;42.496;25.620;2023-06-14T04:09:21;8.50;;;5.63;;
17024;SDS011;8629;42.496;25.620;2023-06-14T04:11:50;6.40;;;5.80;;
17024;SDS011;8629;42.496;25.620;2023-06-14T04:14:18;6.23;;;5.63;;
17024;SDS011;8629;42.496;25.620;2023-06-14T04:16:46;6.07;;;5.30;;
17024;SDS011;8629;42.496;25.620;2023-06-14T04:19:13;5.93;;;5.43;;
17024;SDS011;8629;42.496;25.620;2023-06-14T04:21:40;7.47;;;6.13;;
17024;SDS011;8629;42.496;25.620;2023-06-14T04:24:07;6.33;;;5.77;;
17024;SDS011;8629;42.496;25.620;2023-06-14T04:26:38;5.20;;;4.80;;
17024;SDS011;8629;42.496;25.620;2023-06-14T04:29:04;6.33;;;5.77;;
17024;SDS011;8629;42.496;25.620;2023-06-14T04:31:31;5.53;;;5.13;;
17024;SDS011;8629;42.496;25.620;2023-06-14T04:34:00;6.03;;;5.53;;
17024;SDS011;8629;42.496;25.620;2023-06-14T04:36:30;5.53;;;5.13;;
17024;SDS011;8629;42.496;25.620;2023-06-14T04:39:00;5.50;;;5.00;;
17024;SDS011;8629;42.496;25.620;2023-06-14T04:41:28;5.97;;;5.47;;
17024;SDS011;8629;42.496;25.620;2023-06-14T04:43:55;5.43;;;5.03;;
17024;SDS011;8629;42.496;25.620;2023-06-14T04:46:26;5.93;;;5.43;;
17024;SDS011;8629;42.496;25.620;2023-06-14T04:48:53;5.57;;;4.77;;
17024;SDS011;8629;42.496;25.620;2023-06-14T04:51:21;7.33;;;5.93;;
17024;SDS011;8629;42.496;25.620;2023-06-14T04:53:55;7.43;;;5.80;;
17024;SDS011;8629;42.496;25.620;2023-06-14T04:56:23;5.53;;;5.00;;
17024;SDS011;8629;42.496;25.620;2023-06-14T04:58:51;5.40;;;4.93;;
17024;SDS011;8629;42.496;25.620;2023-06-14T05:01:18;5.97;;;5.47;;
17024;SDS011;8629;42.496;25.620;2023-06-14T05:03:46;4.93;;;4.53;;
17024;SDS011;8629;42.496;25.620;2023-06-14T05:06:13;6.87;;;5.20;;
17024;SDS011;8629;42.496;25.620;2023-06-14T05:08:41;5.53;;;5.00;;
17024;SDS011;8629;42.496;25.620;2023-06-14T05:11:08;5.10;;;4.70;;
17024;SDS011;8629;42.496;25.620;2023-06-14T05:13:35;5.80;;;5.00;;
17024;SDS011;8629;42.496;25.620;2023-06-14T05:16:02;5.23;;;4.73;;
17024;SDS011;8629;42.496;25.620;2023-06-14T05:18:29;6.87;;;4.67;;
17024;SDS011;8629;42.496;25.620;2023-06-14T05:20:56;4.73;;;4.30;;
17024;SDS011;8629;42.496;25.620;2023-06-14T05:23:22;6.20;;;4.03;;
17024;SDS011;8629;42.496;25.620;2023-06-14T05:25:51;4.90;;;4.50;;
17024;SDS011;8629;42.496;25.620;2023-06-14T05:28:17;5.27;;;3.87;;
17024;SDS011;8629;42.496;25.620;2023-06-14T05:30:44;3.77;;;3.30;;
17024;SDS011;8629;42.496;25.620;2023-06-14T05:33:11;4.40;;;4.00;;
17024;SDS011;8629;42.496;25.620;2023-06-14T05:35:37;7.63;;;4.90;;
17024;SDS011;8629;42.496;25.620;2023-06-14T05:38:04;8.97;;;4.20;;
17024;SDS011;8629;42.496;25.620;2023-06-14T05:40:32;4.17;;;3.87;;
17024;SDS011;8629;42.496;25.620;2023-06-14T05:43:00;4.77;;;3.90;;
17024;SDS011;8629;42.496;25.620;2023-06-14T05:45:27;6.03;;;4.13;;
17024;SDS011;8629;42.496;25.620;2023-06-14T05:47:54;5.20;;;4.13;;
17024;SDS011;8629;42.496;25.620;2023-06-14T05:50:21;4.50;;;4.00;;
17024;SDS011;8629;42.496;25.620;2023-06-14T05:52:47;5.20;;;4.70;;
17024;SDS011;8629;42.496;25.620;2023-06-14T05:55:15;4.77;;;4.37;;
17024;SDS011;8629;42.496;25.620;2023-06-14T05:57:42;4.80;;;4.33;;
17024;SDS011;8629;42.496;25.620;2023-06-14T06:00:11;4.73;;;4.07;;
17024;SDS011;8629;42.496;25.620;2023-06-14T06:02:39;5.10;;;4.47;;
17024;SDS011;8629;42.496;25.620;2023-06-14T06:05:07;4.27;;;3.97;;
17024;SDS011;8629;42.496;25.620;2023-06-14T06:07:34;4.87;;;4.47;;
17024;SDS011;8629;42.496;25.620;2023-06-14T06:10:01;4.77;;;4.37;;
17024;SDS011;8629;42.496;25.620;2023-06-14T06:12:28;4.83;;;4.03;;
17024;SDS011;8629;42.496;25.620;2023-06-14T06:14:55;3.73;;;3.43;;
17024;SDS011;8629;42.496;25.620;2023-06-14T06:17:24;4.63;;;4.20;;
17024;SDS011;8629;42.496;25.620;2023-06-14T06:19:51;5.47;;;4.40;;
17024;SDS011;8629;42.496;25.620;2023-06-14T06:22:18;5.07;;;3.93;;
17024;SDS011;8629;42.496;25.620;2023-06-14T06:24:44;6.10;;;3.87;;
17024;SDS011;8629;42.496;25.620;2023-06-14T06:27:11;4.73;;;3.93;;
17024;SDS011;8629;42.496;25.620;2023-06-14T06:29:38;5.43;;;4.67;;
17024;SDS011;8629;42.496;25.620;2023-06-14T06:32:05;4.10;;;3.80;;
17024;SDS011;8629;42.496;25.620;2023-06-14T06:34:34;3.70;;;3.40;;
17024;SDS011;8629;42.496;25.620;2023-06-14T06:37:02;4.13;;;3.83;;
17024;SDS011;8629;42.496;25.620;2023-06-14T06:39:29;5.83;;;4.47;;
17024;SDS011;8629;42.496;25.620;2023-06-14T06:41:56;4.23;;;3.83;;
17024;SDS011;8629;42.496;25.620;2023-06-14T06:44:23;5.33;;;3.63;;
17024;SDS011;8629;42.496;25.620;2023-06-14T06:46:50;5.33;;;4.93;;
17024;SDS011;8629;42.496;25.620;2023-06-14T06:49:16;4.30;;;3.90;;
17024;SDS011;8629;42.496;25.620;2023-06-14T06:51:58;4.60;;;3.27;;
17024;SDS011;8629;42.496;25.620;2023-06-14T06:54:25;3.53;;;3.23;;
17024;SDS011;8629;42.496;25.620;2023-06-14T06:56:52;4.97;;;3.23;;
17024;SDS011;8629;42.496;25.620;2023-06-14T06:59:19;5.07;;;3.73;;
17024;SDS011;8629;42.496;25.620;2023-06-14T07:01:46;3.97;;;3.50;;
17024;SDS011;8629;42.496;25.620;2023-06-14T07:04:14;7.57;;;3.50;;
17024;SDS011;8629;42.496;25.620;2023-06-14T07:06:41;4.77;;;3.83;;
17024;SDS011;8629;42.496;25.620;2023-06-14T07:09:09;3.73;;;3.50;;
17024;SDS011;8629;42.496;25.620;2023-06-14T07:11:38;4.10;;;3.80;;
17024;SDS011;8629;42.496;25.620;2023-06-14T07:14:04;4.33;;;3.93;;
17024;SDS011;8629;42.496;25.620;2023-06-14T07:16:31;5.73;;;4.00;;
17024;SDS011;8629;42.496;25.620;2023-06-14T07:18:58;4.70;;;4.00;;
17024;SDS011;8629;42.496;25.620;2023-06-14T07:21:25;4.23;;;3.93;;
17024;SDS011;8629;42.496;25.620;2023-06-14T07:23:52;4.83;;;4.33;;
17024;SDS011;8629;42.496;25.620;2023-06-14T07:26:20;4.47;;;4.07;;
17024;SDS011;8629;42.496;25.620;2023-06-14T07:28:48;5.37;;;4.70;;
17024;SDS011;8629;42.496;25.620;2023-06-14T07:31:14;5.27;;;4.17;;
17024;SDS011;8629;42.496;25.620;2023-06-14T07:33:42;4.10;;;3.80;;
17024;SDS011;8629;42.496;25.620;2023-06-14T07:36:09;4.10;;;3.33;;
17024;SDS011;8629;42.496;25.620;2023-06-14T07:38:36;9.67;;;4.77;;
17024;SDS011;8629;42.496;25.620;2023-06-14T07:41:03;4.60;;;4.20;;
17024;SDS011;8629;42.496;25.620;2023-06-14T07:43:32;4.40;;;4.10;;
17024;SDS011;8629;42.496;25.620;2023-06-14T07:45:59;5.90;;;4.87;;
17024;SDS011;8629;42.496;25.620;2023-06-14T07:48:26;5.27;;;4.70;;
17024;SDS011;8629;42.496;25.620;2023-06-14T07:50:53;5.77;;;5.23;;
17024;SDS011;8629;42.496;25.620;2023-06-14T07:53:19;6.77;;;5.57;;
17024;SDS011;8629;42.496;25.620;2023-06-14T07:55:46;6.57;;;5.03;;
17024;SDS011;8629;42.496;25.620;2023-06-14T07:58:13;5.23;;;4.73;;
17024;SDS011;8629;42.496;25.620;2023-06-14T08:00:41;7.37;;;5.90;;
17024;SDS011;8629;42.496;25.620;2023-06-14T08:03:08;7.87;;;6.03;;
17024;SDS011;8629;42.496;25.620;2023-06-14T08:05:35;5.67;;;5.17;;
17024;SDS011;8629;42.496;25.620;2023-06-14T08:08:02;7.77;;;5.80;;
17024;SDS011;8629;42.496;25.620;2023-06-14T08:10:28;6.03;;;5.50;;
17024;SDS011;8629;42.496;25.620;2023-06-14T08:12:55;5.20;;;4.73;;
17024;SDS011;8629;42.496;25.620;2023-06-14T08:15:22;7.93;;;5.87;;
17024;SDS011;8629;42.496;25.620;2023-06-14T08:17:50;6.33;;;5.60;;
17024;SDS011;8629;42.496;25.620;2023-06-14T08:20:17;6.13;;;5.53;;
17024;SDS011;8629;42.496;25.620;2023-06-14T08:22:44;7.67;;;5.53;;
17024;SDS011;8629;42.496;25.620;2023-06-14T08:25:13;8.37;;;7.43;;
17024;SDS011;8629;42.496;25.620;2023-06-14T08:27:40;8.10;;;7.30;;
17024;SDS011;8629;42.496;25.620;2023-06-14T08:30:07;6.30;;;5.70;;
17024;SDS011;8629;42.496;25.620;2023-06-14T08:32:35;8.83;;;5.63;;
17024;SDS011;8629;42.496;25.620;2023-06-14T08:35:03;7.03;;;5.23;;
17024;SDS011;8629;42.496;25.620;2023-06-14T08:37:32;4.87;;;4.47;;
17024;SDS011;8629;42.496;25.620;2023-06-14T08:39:59;8.37;;;5.50;;
17024;SDS011;8629;42.496;25.620;2023-06-14T08:42:26;5.03;;;4.57;;
17024;SDS011;8629;42.496;25.620;2023-06-14T08:44:53;5.53;;;4.83;;
17024;SDS011;8629;42.496;25.620;2023-06-14T08:47:20;6.53;;;4.87;;
17024;SDS011;8629;42.496;25.620;2023-06-14T08:49:47;6.23;;;4.70;;
17024;SDS011;8629;42.496;25.620;2023-06-14T08:52:15;4.47;;;4.10;;
17024;SDS011;8629;42.496;25.620;2023-06-14T08:54:46;6.77;;;6.07;;
17024;SDS011;8629;42.496;25.620;2023-06-14T08:57:13;7.30;;;4.97;;
17024;SDS011;8629;42.496;25.620;2023-06-14T08:59:45;7.40;;;6.20;;
17024;SDS011;8629;42.496;25.620;2023-06-14T09:02:14;6.57;;;5.97;;
17024;SDS011;8629;42.496;25.620;2023-06-14T09:04:43;5.60;;;5.10;;
17024;SDS011;8629;42.496;25.620;2023-06-14T09:07:10;4.90;;;4.50;;
17024;SDS011;8629;42.496;25.620;2023-06-14T09:09:39;5.80;;;4.53;;
17024;SDS011;8629;42.496;25.620;2023-06-14T09:12:07;6.07;;;5.60;;
17024;SDS011;8629;42.496;25.620;2023-06-14T09:14:36;6.83;;;5.70;;
17024;SDS011;8629;42.496;25.620;2023-06-14T09:17:05;6.13;;;5.30;;
17024;SDS011;8629;42.496;25.620;2023-06-14T09:19:33;7.63;;;5.53;;
17024;SDS011;8629;42.496;25.620;2023-06-14T09:22:01;6.00;;;5.50;;
17024;SDS011;8629;42.496;25.620;2023-06-14T09:24:27;5.93;;;5.33;;
17024;SDS011;8629;42.496;25.620;2023-06-14T09:26:55;5.70;;;5.20;;
17024;SDS011;8629;42.496;25.620;2023-06-14T09:29:23;5.97;;;4.60;;
17024;SDS011;8629;42.496;25.620;2023-06-14T09:31:51;5.57;;;5.07;;
17024;SDS011;8629;42.496;25.620;2023-06-14T09:34:18;6.53;;;5.80;;
17024;SDS011;8629;42.496;25.620;2023-06-14T09:36:48;6.60;;;5.20;;
17024;SDS011;8629;42.496;25.620;2023-06-14T09:39:16;6.70;;;5.43;;
17024;SDS011;8629;42.496;25.620;2023-06-14T09:41:43;6.30;;;5.10;;
17024;SDS011;8629;42.496;25.620;2023-06-14T09:44:11;7.37;;;4.93;;
17024;SDS011;8629;42.496;25.620;2023-06-14T09:46:38;6.23;;;5.63;;
17024;SDS011;8629;42.496;25.620;2023-06-14T09:49:05;5.57;;;5.07;;
17024;SDS011;8629;42.496;25.620;2023-06-14T09:51:32;5.40;;;4.90;;
17024;SDS011;8629;42.496;25.620;2023-06-14T09:54:00;7.23;;;4.97;;
17024;SDS011;8629;42.496;25.620;2023-06-14T09:56:30;6.57;;;5.57;;
17024;SDS011;8629;42.496;25.620;2023-06-14T09:59:01;5.97;;;5.43;;
17024;SDS011;8629;42.496;25.620;2023-06-14T10:01:33;10.33;;;5.67;;
17024;SDS011;8629;42.496;25.620;2023-06-14T10:04:01;7.80;;;5.37;;
17024;SDS011;8629;42.496;25.620;2023-06-14T10:06:29;9.27;;;5.00;;
17024;SDS011;8629;42.496;25.620;2023-06-14T10:08:56;10.97;;;5.37;;
17024;SDS011;8629;42.496;25.620;2023-06-14T10:11:26;10.30;;;6.27;;
17024;SDS011;8629;42.496;25.620;2023-06-14T10:13:54;6.33;;;5.40;;
17024;SDS011;8629;42.496;25.620;2023-06-14T10:16:23;5.13;;;4.67;;
17024;SDS011;8629;42.496;25.620;2023-06-14T10:19:01;7.73;;;5.10;;
17024;SDS011;8629;42.496;25.620;2023-06-14T10:21:33;5.63;;;4.97;;
17024;SDS011;8629;42.496;25.620;2023-06-14T10:24:05;5.37;;;4.87;;
17024;SDS011;8629;42.496;25.620;2023-06-14T10:26:33;4.97;;;4.57;;
17024;SDS011;8629;42.496;25.620;2023-06-14T10:29:01;5.70;;;5.20;;
17024;SDS011;8629;42.496;25.620;2023-06-14T10:31:39;6.57;;;4.77;;
17024;SDS011;8629;42.496;25.620;2023-06-14T10:34:08;5.03;;;4.43;;
17024;SDS011;8629;42.496;25.620;2023-06-14T10:36:35;5.10;;;4.70;;
17024;SDS011;8629;42.496;25.620;2023-06-14T10:39:06;6.57;;;6.07;;
17024;SDS011;8629;42.496;25.620;2023-06-14T10:41:35;5.43;;;4.93;;
17024;SDS011;8629;42.496;25.620;2023-06-14T10:46:58;5.67;;;5.07;;
17024;SDS011;8629;42.496;25.620;2023-06-14T10:49:37;4.90;;;4.23;;
17024;SDS011;8629;42.496;25.620;2023-06-14T10:52:08;5.70;;;5.10;;
17024;SDS011;8629;42.496;25.620;2023-06-14T10:54:55;7.03;;;4.90;;
17024;SDS011;8629;42.496;25.620;2023-06-14T10:57:22;5.27;;;4.33;;
17024;SDS011;8629;42.496;25.620;2023-06-14T10:59:49;6.13;;;4.60;;
17024;SDS011;8629;42.496;25.620;2023-06-14T11:02:20;4.83;;;4.20;;
17024;SDS011;8629;42.496;25.620;2023-06-14T11:05:05;5.80;;;4.77;;
17024;SDS011;8629;42.496;25.620;2023-06-14T11:07:38;8.33;;;4.60;;
17024;SDS011;8629;42.496;25.620;2023-06-14T11:10:16;5.43;;;4.93;;
17024;SDS011;8629;42.496;25.620;2023-06-14T11:12:51;4.50;;;4.20;;
17024;SDS011;8629;42.496;25.620;2023-06-14T11:15:22;6.33;;;4.50;;
17024;SDS011;8629;42.496;25.620;2023-06-14T11:17:54;7.57;;;4.63;;
17024;SDS011;8629;42.496;25.620;2023-06-14T11:20:26;6.37;;;4.67;;
17024;SDS011;8629;42.496;25.620;2023-06-14T11:22:53;5.37;;;4.87;;
17024;SDS011;8629;42.496;25.620;2023-06-14T11:25:20;4.90;;;4.50;;
17024;SDS011;8629;42.496;25.620;2023-06-14T11:27:48;5.47;;;4.70;;
17024;SDS011;8629;42.496;25.620;2023-06-14T11:30:15;5.70;;;5.00;;
17024;SDS011;8629;42.496;25.620;2023-06-14T11:32:42;6.60;;;4.43;;
17024;SDS011;8629;42.496;25.620;2023-06-14T11:35:11;6.60;;;4.40;;
17024;SDS011;8629;42.496;25.620;2023-06-14T11:37:40;4.50;;;4.10;;
17024;SDS011;8629;42.496;25.620;2023-06-14T11:40:07;4.33;;;4.03;;
17024;SDS011;8629;42.496;25.620;2023-06-14T11:42:35;4.57;;;3.93;;
17024;SDS011;8629;42.496;25.620;2023-06-14T11:45:02;3.57;;;3.37;;
17024;SDS011;8629;42.496;25.620;2023-06-14T11:47:31;5.50;;;4.07;;
17024;SDS011;8629;42.496;25.620;2023-06-14T11:49:58;5.13;;;4.00;;
17024;SDS011;8629;42.496;25.620;2023-06-14T11:52:27;4.30;;;4.00;;
17024;SDS011;8629;42.496;25.620;2023-06-14T11:54:56;5.77;;;3.50;;
17024;SDS011;8629;42.496;25.620;2023-06-14T11:57:23;6.53;;;4.33;;
17024;SDS011;8629;42.496;25.620;2023-06-14T11:59:50;5.47;;;3.40;;
17024;SDS011;8629;42.496;25.620;2023-06-14T12:02:18;3.37;;;3.17;;
17024;SDS011;8629;42.496;25.620;2023-06-14T12:04:46;4.17;;;3.87;;
17024;SDS011;8629;42.496;25.620;2023-06-14T12:07:13;4.63;;;4.13;;
17024;SDS011;8629;42.496;25.620;2023-06-14T12:09:42;10.30;;;3.43;;
17024;SDS011;8629;42.496;25.620;2023-06-14T12:12:34;3.83;;;3.50;;
17024;SDS011;8629;42.496;25.620;2023-06-14T12:15:02;5.73;;;4.07;;
17024;SDS011;8629;42.496;25.620;2023-06-14T12:17:34;4.30;;;3.70;;
17024;SDS011;8629;42.496;25.620;2023-06-14T12:20:06;4.93;;;3.77;;
17024;SDS011;8629;42.496;25.620;2023-06-14T12:22:36;3.90;;;3.53;;
17024;SDS011;8629;42.496;25.620;2023-06-14T12:25:03;4.07;;;3.77;;
17024;SDS011;8629;42.496;25.620;2023-06-14T12:27:30;4.17;;;3.87;;
17024;SDS011;8629;42.496;25.620;2023-06-14T12:30:00;4.43;;;4.03;;
17024;SDS011;8629;42.496;25.620;2023-06-14T12:32:27;5.30;;;4.10;;
17024;SDS011;8629;42.496;25.620;2023-06-14T12:34:54;3.73;;;3.43;;
17024;SDS011;8629;42.496;25.620;2023-06-14T12:37:21;4.20;;;3.90;;
17024;SDS011;8629;42.496;25.620;2023-06-14T12:39:50;3.93;;;3.63;;
17024;SDS011;8629;42.496;25.620;2023-06-14T12:42:17;4.73;;;3.70;;
17024;SDS011;8629;42.496;25.620;2023-06-14T12:44:44;4.13;;;3.73;;
17024;SDS011;8629;42.496;25.620;2023-06-14T12:47:12;3.93;;;3.63;;
17024;SDS011;8629;42.496;25.620;2023-06-14T12:49:39;3.80;;;3.50;;
17024;SDS011;8629;42.496;25.620;2023-06-14T12:52:07;4.00;;;3.70;;
17024;SDS011;8629;42.496;25.620;2023-06-14T12:54:34;4.00;;;3.43;;
17024;SDS011;8629;42.496;25.620;2023-06-14T12:57:01;4.70;;;3.87;;
17024;SDS011;8629;42.496;25.620;2023-06-14T12:59:28;5.40;;;3.47;;
17024;SDS011;8629;42.496;25.620;2023-06-14T13:01:59;19.40;;;5.57;;
17024;SDS011;8629;42.496;25.620;2023-06-14T13:04:28;9.27;;;4.73;;
17024;SDS011;8629;42.496;25.620;2023-06-14T13:06:57;4.30;;;3.90;;
17024;SDS011;8629;42.496;25.620;2023-06-14T13:09:24;4.97;;;4.53;;
17024;SDS011;8629;42.496;25.620;2023-06-14T13:11:52;3.93;;;3.63;;
17024;SDS011;8629;42.496;25.620;2023-06-14T13:14:18;5.80;;;3.80;;
17024;SDS011;8629;42.496;25.620;2023-06-14T13:16:45;4.50;;;3.97;;
17024;SDS011;8629;42.496;25.620;2023-06-14T13:19:12;4.23;;;3.83;;
17024;SDS011;8629;42.496;25.620;2023-06-14T13:21:40;4.77;;;4.27;;
17024;SDS011;8629;42.496;25.620;2023-06-14T13:24:07;5.83;;;4.20;;
17024;SDS011;8629;42.496;25.620;2023-06-14T13:26:33;4.10;;;3.63;;
17024;SDS011;8629;42.496;25.620;2023-06-14T13:29:00;4.03;;;3.70;;
17024;SDS011;8629;42.496;25.620;2023-06-14T13:31:27;4.70;;;4.00;;
17024;SDS011;8629;42.496;25.620;2023-06-14T13:33:53;4.60;;;4.10;;
17024;SDS011;8629;42.496;25.620;2023-06-14T13:36:20;4.33;;;4.03;;
17024;SDS011;8629;42.496;25.620;2023-06-14T13:38:48;4.70;;;4.30;;
17024;SDS011;8629;42.496;25.620;2023-06-14T13:41:16;4.53;;;4.07;;
17024;SDS011;8629;42.496;25.620;2023-06-14T13:43:43;3.93;;;3.63;;
17024;SDS011;8629;42.496;25.620;2023-06-14T13:46:10;6.83;;;3.67;;
17024;SDS011;8629;42.496;25.620;2023-06-14T13:48:37;4.30;;;3.90;;
17024;SDS011;8629;42.496;25.620;2023-06-14T13:51:03;3.53;;;3.23;;
17024;SDS011;8629;42.496;25.620;2023-06-14T13:53:31;3.50;;;3.30;;
17024;SDS011;8629;42.496;25.620;2023-06-14T13:55:59;5.00;;;3.40;;
17024;SDS011;8629;42.496;25.620;2023-06-14T13:58:26;4.03;;;3.73;;
17024;SDS011;8629;42.496;25.620;2023-06-14T14:00:53;3.90;;;3.60;;
17024;SDS011;8629;42.496;25.620;2023-06-14T14:03:20;4.30;;;3.87;;
17024;SDS011;8629;42.496;25.620;2023-06-14T14:05:46;4.63;;;3.43;;
17024;SDS011;8629;42.496;25.620;2023-06-14T14:08:13;2.87;;;2.67;;
17024;SDS011;8629;42.496;25.620;2023-06-14T14:10:40;6.30;;;3.37;;
17024;SDS011;8629;42.496;25.620;2023-06-14T14:13:08;4.30;;;3.50;;
17024;SDS011;8629;42.496;25.620;2023-06-14T14:15:38;3.97;;;3.67;;
17024;SDS011;8629;42.496;25.620;2023-06-14T14:18:05;4.23;;;3.47;;
17024;SDS011;8629;42.496;25.620;2023-06-14T14:20:32;3.37;;;3.07;;
17024;SDS011;8629;42.496;25.620;2023-06-14T14:22:59;3.80;;;3.50;;
17024;SDS011;8629;42.496;25.620;2023-06-14T14:25:25;3.70;;;3.40;;
17024;SDS011;8629;42.496;25.620;2023-06-14T14:27:52;3.63;;;3.03;;
17024;SDS011;8629;42.496;25.620;2023-06-14T14:30:21;3.87;;;3.30;;
17024;SDS011;8629;42.496;25.620;2023-06-14T14:32:48;3.10;;;2.80;;
17024;SDS011;8629;42.496;25.620;2023-06-14T14:35:16;3.70;;;3.40;;
17024;SDS011;8629;42.496;25.620;2023-06-14T14:37:43;3.33;;;3.13;;
17024;SDS011;8629;42.496;25.620;2023-06-14T14:40:10;3.53;;;3.20;;
17024;SDS011;8629;42.496;25.620;2023-06-14T14:42:37;3.60;;;3.30;;
17024;SDS011;8629;42.496;25.620;2023-06-14T14:45:04;4.17;;;3.87;;
17024;SDS011;8629;42.496;25.620;2023-06-14T14:47:33;3.43;;;3.20;;
17024;SDS011;8629;42.496;25.620;2023-06-14T14:50:00;3.87;;;3.10;;
17024;SDS011;8629;42.496;25.620;2023-06-14T14:52:27;3.20;;;3.00;;
17024;SDS011;8629;42.496;25.620;2023-06-14T14:54:53;3.60;;;3.30;;